| time (UTC) | temp C | wind direction | speed KPH | gust KPH | rain 1hr cm | rain 24hr cm | rain mn cm | humidity % | barometer mb |
| 20260906212051 | 33 | 184 | 4.8 | 19.3 | 0.00 | 0.00 | 0.00 | 34 | 1017.5 |
| 20260906211030 | 34 | 164 | 6.4 | 14.5 | 0.00 | 0.00 | 0.00 | 33 | 1017.7 |
| 20260906210028 | 34 | 209 | 4.8 | 16.1 | 0.00 | 0.00 | 0.00 | 34 | 1017.7 |
| 20260906205026 | 34 | 209 | 8.0 | 20.9 | 0.00 | 0.00 | 0.00 | 34 | 1017.8 |
| 20260906204024 | 35 | 192 | 4.8 | 12.9 | 0.00 | 0.00 | 0.00 | 33 | 1018.0 |
| 20260906203023 | 33 | 232 | 6.4 | 27.4 | 0.00 | 0.00 | 0.00 | 35 | 1018.0 |
| 20260906202021 | 35 | 213 | 6.4 | 19.3 | 0.00 | 0.00 | 0.00 | 35 | 1017.7 |
| 20260906201019 | 35 | 215 | 6.4 | 17.7 | 0.00 | 0.00 | 0.00 | 35 | 1017.9 |
| 20260906200017 | 34 | 204 | 4.8 | 17.7 | 0.00 | 0.00 | 0.00 | 35 | 1018.1 |
| 20260906195035 | 34 | 233 | 4.8 | 17.7 | 0.00 | 0.00 | 0.00 | 36 | 1018.2 |
| 20260906194033 | 33 | 218 | 3.2 | 16.1 | 0.00 | 0.00 | 0.00 | 36 | 1018.5 |
| 20260906193052 | 34 | 204 | 6.4 | 22.5 | 0.00 | 0.00 | 0.00 | 36 | 1018.6 |
| 20260906192030 | 34 | 228 | 3.2 | 12.9 | 0.00 | 0.00 | 0.00 | 36 | 1018.7 |
| 20260906191028 | 33 | 223 | 4.8 | 20.9 | 0.00 | 0.00 | 0.00 | 38 | 1018.8 |
| 20260906190026 | 33 | 212 | 4.8 | 14.5 | 0.00 | 0.00 | 0.00 | 38 | 1018.9 |
| 20260906185024 | 33 | 182 | 4.8 | 24.1 | 0.00 | 0.00 | 0.00 | 37 | 1019.1 |
| 20260906184023 | 33 | 215 | 6.4 | 14.5 | 0.00 | 0.00 | 0.00 | 38 | 1019.4 |
| 20260906183021 | 33 | 210 | 4.8 | 16.1 | 0.00 | 0.00 | 0.00 | 38 | 1019.5 |
| 20260906182019 | 33 | 217 | 6.4 | 27.4 | 0.00 | 0.00 | 0.00 | 38 | 1019.5 |
| 20260906181017 | 33 | 176 | 4.8 | 17.7 | 0.00 | 0.00 | 0.00 | 39 | 1019.7 |
| 20260906180015 | 32 | 225 | 4.8 | 20.9 | 0.00 | 0.00 | 0.00 | 40 | 1019.9 |
| 20260906175033 | 32 | 211 | 8.0 | 27.4 | 0.00 | 0.00 | 0.00 | 41 | 1019.9 |
| 20260906174052 | 32 | 218 | 8.0 | 20.9 | 0.00 | 0.00 | 0.00 | 41 | 1020.0 |
| 20260906173030 | 33 | 220 | 6.4 | 20.9 | 0.00 | 0.00 | 0.00 | 42 | 1020.1 |
| 20260906172028 | 32 | 227 | 4.8 | 14.5 | 0.00 | 0.00 | 0.00 | 43 | 1020.2 |
| 20260906171026 | 32 | 224 | 4.8 | 22.5 | 0.00 | 0.00 | 0.00 | 43 | 1020.2 |
| 20260906170025 | 32 | 213 | 6.4 | 27.4 | 0.00 | 0.00 | 0.00 | 43 | 1020.3 |
| 20260906165043 | 31 | 220 | 4.8 | 16.1 | 0.00 | 0.00 | 0.00 | 45 | 1020.4 |
| 20260906164021 | 31 | 227 | 6.4 | 17.7 | 0.00 | 0.00 | 0.00 | 45 | 1020.5 |
| 20260906163019 | 31 | 215 | 8.0 | 19.3 | 0.00 | 0.00 | 0.00 | 44 | 1020.4 |
| 20260906162017 | 31 | 220 | 4.8 | 14.5 | 0.00 | 0.00 | 0.00 | 47 | 1020.4 |
| 20260906161035 | 31 | 226 | 4.8 | 11.3 | 0.00 | 0.00 | 0.00 | 47 | 1020.3 |
| 20260906160034 | 30 | 211 | 4.8 | 16.1 | 0.00 | 0.00 | 0.00 | 49 | 1020.3 |
| 20260906155032 | 30 | 209 | 8.0 | 19.3 | 0.00 | 0.00 | 0.00 | 49 | 1020.1 |
| 20260906154030 | 30 | 220 | 6.4 | 14.5 | 0.00 | 0.00 | 0.00 | 50 | 1020.1 |
| 20260906153028 | 30 | 221 | 9.7 | 24.1 | 0.00 | 0.00 | 0.00 | 50 | 1020.3 |
| 20260906152027 | 30 | 204 | 6.4 | 20.9 | 0.00 | 0.00 | 0.00 | 51 | 1020.3 |
| 20260906151025 | 30 | 203 | 6.4 | 20.9 | 0.00 | 0.00 | 0.00 | 51 | 1020.3 |
| 20260906150023 | 29 | 217 | 6.4 | 20.9 | 0.00 | 0.00 | 0.00 | 51 | 1020.2 |
| 20260906145021 | 29 | 210 | 6.4 | 25.7 | 0.00 | 0.00 | 0.00 | 52 | 1020.0 |
| 20260906144019 | 28 | 208 | 4.8 | 16.1 | 0.00 | 0.00 | 0.00 | 53 | 1020.0 |
| 20260906143017 | 27 | 217 | 6.4 | 16.1 | 0.00 | 0.00 | 0.00 | 55 | 1020.3 |
| 20260906142016 | 27 | 220 | 6.4 | 14.5 | 0.00 | 0.00 | 0.00 | 56 | 1020.1 |
| 20260906141034 | 27 | 227 | 6.4 | 14.5 | 0.00 | 0.00 | 0.00 | 55 | 1020.0 |
| 20260906140032 | 26 | 212 | 4.8 | 9.7 | 0.00 | 0.00 | 0.00 | 57 | 1019.9 |
| 20260906135030 | 26 | 213 | 3.2 | 11.3 | 0.00 | 0.00 | 0.00 | 58 | 1019.7 |
| 20260906134029 | 25 | 204 | 4.8 | 11.3 | 0.00 | 0.00 | 0.00 | 59 | 1019.5 |
| 20260906133027 | 24 | 198 | 3.2 | 9.7 | 0.00 | 0.00 | 0.00 | 62 | 1019.4 |
| 20260906132025 | 23 | 209 | 3.2 | 8.0 | 0.00 | 0.00 | 0.00 | 62 | 1019.4 |
| 20260906131023 | 23 | 208 | 4.8 | 11.3 | 0.00 | 0.00 | 0.00 | 62 | 1019.3 |
| 20260906130021 | 23 | 212 | 4.8 | 12.9 | 0.00 | 0.00 | 0.00 | 62 | 1019.2 |
| 20260906125039 | 23 | 211 | 3.2 | 8.0 | 0.00 | 0.00 | 0.00 | 63 | 1019.5 |
| 20260906124018 | 23 | 218 | 1.6 | 8.0 | 0.00 | 0.00 | 0.00 | 63 | 1019.3 |
| 20260906123016 | 23 | 211 | 1.6 | 6.4 | 0.00 | 0.00 | 0.00 | 63 | 1019.1 |
| 20260906122034 | 23 | 223 | 1.6 | 8.0 | 0.00 | 0.00 | 0.00 | 62 | 1018.8 |
| 20260906121032 | 23 | 202 | 1.6 | 6.4 | 0.00 | 0.00 | 0.00 | 62 | 1018.7 |
| 20260906120031 | 23 | 201 | 3.2 | 11.3 | 0.00 | 0.00 | 0.00 | 61 | 1018.7 |
| 20260906115029 | 23 | 204 | 3.2 | 6.4 | 0.00 | 0.00 | 0.00 | 61 | 1018.7 |
| 20260906114027 | 23 | 198 | 3.2 | 9.7 | 0.00 | 0.00 | 0.00 | 61 | 1018.7 |
| 20260906113025 | 23 | 184 | 3.2 | 9.7 | 0.00 | 0.00 | 0.00 | 61 | 1018.5 |
| 20260906112024 | 23 | 210 | 3.2 | 9.7 | 0.00 | 0.00 | 0.00 | 60 | 1018.5 |
| 20260906111022 | 23 | 230 | 3.2 | 9.7 | 0.00 | 0.00 | 0.00 | 60 | 1018.6 |
| 20260906110020 | 23 | 209 | 1.6 | 6.4 | 0.00 | 0.00 | 0.00 | 60 | 1018.7 |
| 20260906105018 | 23 | 213 | 1.6 | 6.4 | 0.00 | 0.00 | 0.00 | 60 | 1018.4 |
| 20260906104016 | 23 | 206 | 1.6 | 3.2 | 0.00 | 0.00 | 0.00 | 59 | 1018.4 |
| 20260906103054 | 24 | 199 | 1.6 | 4.8 | 0.00 | 0.00 | 0.00 | 59 | 1018.3 |
| 20260906102033 | 24 | 197 | 1.6 | 9.7 | 0.00 | 0.00 | 0.00 | 58 | 1018.2 |
| 20260906101031 | 24 | 201 | 3.2 | 9.7 | 0.00 | 0.00 | 0.00 | 58 | 1018.1 |
| 20260906100029 | 24 | 204 | 3.2 | 9.7 | 0.00 | 0.00 | 0.00 | 58 | 1018.2 |
| 20260906095027 | 24 | 208 | 3.2 | 9.7 | 0.00 | 0.00 | 0.00 | 57 | 1018.3 |
| 20260906094025 | 24 | 210 | 4.8 | 12.9 | 0.00 | 0.00 | 0.00 | 57 | 1018.1 |
| 20260906093044 | 24 | 213 | 3.2 | 9.7 | 0.00 | 0.00 | 0.00 | 57 | 1018.1 |
| 20260906092042 | 24 | 203 | 3.2 | 8.0 | 0.00 | 0.00 | 0.00 | 57 | 1018.1 |
| 20260906091100 | 25 | 218 | 1.6 | 6.4 | 0.00 | 0.00 | 0.00 | 57 | 1018.1 |
| 20260906090018 | 25 | 201 | 3.2 | 8.0 | 0.00 | 0.00 | 0.00 | 56 | 1018.2 |
| 20260906085016 | 25 | 215 | 1.6 | 9.7 | 0.00 | 0.00 | 0.00 | 56 | 1018.2 |
| 20260906084034 | 25 | 193 | 1.6 | 4.8 | 0.00 | 0.00 | 0.00 | 56 | 1018.3 |
| 20260906083033 | 25 | 208 | 1.6 | 6.4 | 0.00 | 0.00 | 0.00 | 56 | 1018.3 |
| 20260906082031 | 25 | 216 | 3.2 | 6.4 | 0.00 | 0.00 | 0.00 | 55 | 1018.1 |
| 20260906081029 | 25 | 200 | 3.2 | 8.0 | 0.00 | 0.00 | 0.00 | 54 | 1018.3 |
| 20260906080027 | 25 | 198 | 3.2 | 9.7 | 0.00 | 0.00 | 0.00 | 54 | 1018.3 |
| 20260906075046 | 25 | 221 | 3.2 | 8.0 | 0.00 | 0.00 | 0.00 | 54 | 1018.3 |
| 20260906074024 | 26 | 203 | 3.2 | 6.4 | 0.00 | 0.00 | 0.00 | 54 | 1018.2 |
| 20260906073022 | 26 | 209 | 3.2 | 9.7 | 0.00 | 0.00 | 0.00 | 53 | 1018.2 |
| 20260906072040 | 26 | 206 | 3.2 | 9.7 | 0.00 | 0.00 | 0.00 | 53 | 1018.4 |
| 20260906071018 | 26 | 199 | 1.6 | 8.0 | 0.00 | 0.00 | 0.00 | 52 | 1018.4 |
| 20260906070017 | 26 | 213 | 3.2 | 11.3 | 0.00 | 0.00 | 0.00 | 52 | 1018.4 |
| 20260906065035 | 26 | 213 | 3.2 | 9.7 | 0.00 | 0.00 | 0.00 | 51 | 1018.4 |
| 20260906064033 | 26 | 201 | 4.8 | 9.7 | 0.00 | 0.00 | 0.00 | 51 | 1018.3 |
| 20260906063031 | 26 | 211 | 4.8 | 11.3 | 0.00 | 0.00 | 0.00 | 51 | 1018.4 |
| 20260906062029 | 26 | 193 | 3.2 | 11.3 | 0.00 | 0.00 | 0.00 | 51 | 1018.2 |
| 20260906061048 | 26 | 214 | 3.2 | 14.5 | 0.00 | 0.00 | 0.00 | 51 | 1018.3 |
| 20260906060046 | 27 | 219 | 3.2 | 14.5 | 0.00 | 0.00 | 0.00 | 50 | 1018.3 |
| 20260906055024 | 27 | 211 | 4.8 | 16.1 | 0.00 | 0.00 | 0.00 | 50 | 1018.4 |
| 20260906054022 | 27 | 214 | 4.8 | 11.3 | 0.00 | 0.00 | 0.00 | 49 | 1018.3 |
| 20260906053100 | 27 | 217 | 4.8 | 16.1 | 0.00 | 0.00 | 0.00 | 48 | 1018.4 |
| 20260906052039 | 27 | 218 | 4.8 | 14.5 | 0.00 | 0.00 | 0.00 | 48 | 1018.2 |
| 20260906051017 | 28 | 218 | 4.8 | 14.5 | 0.00 | 0.00 | 0.00 | 47 | 1018.3 |
| 20260906050035 | 28 | 219 | 4.8 | 16.1 | 0.00 | 0.00 | 0.00 | 47 | 1018.2 |
| 20260906045033 | 28 | 223 | 4.8 | 11.3 | 0.00 | 0.00 | 0.00 | 46 | 1018.3 |
| 20260906044031 | 28 | 212 | 4.8 | 11.3 | 0.00 | 0.00 | 0.00 | 46 | 1018.4 |
| 20260906043030 | 28 | 205 | 3.2 | 14.5 | 0.00 | 0.00 | 0.00 | 45 | 1018.2 |
| 20260906042048 | 28 | 224 | 4.8 | 11.3 | 0.00 | 0.00 | 0.00 | 44 | 1018.2 |
| 20260906041026 | 28 | 210 | 6.4 | 14.5 | 0.00 | 0.00 | 0.00 | 44 | 1018.2 |
| 20260906040024 | 29 | 211 | 4.8 | 11.3 | 0.00 | 0.00 | 0.00 | 45 | 1018.3 |
| 20260906035023 | 30 | 210 | 4.8 | 14.5 | 0.00 | 0.00 | 0.00 | 42 | 1018.3 |
| 20260906034021 | 30 | 222 | 6.4 | 17.7 | 0.00 | 0.00 | 0.00 | 42 | 1018.3 |
| 20260906033039 | 30 | 235 | 4.8 | 12.9 | 0.00 | 0.00 | 0.00 | 42 | 1018.3 |
| 20260906032017 | 30 | 228 | 4.8 | 14.5 | 0.00 | 0.00 | 0.00 | 42 | 1018.0 |
| 20260906031016 | 30 | 222 | 4.8 | 14.5 | 0.00 | 0.00 | 0.00 | 41 | 1017.9 |
| 20260906030054 | 30 | 221 | 4.8 | 14.5 | 0.00 | 0.00 | 0.00 | 41 | 1017.5 |
| 20260906025032 | 30 | 229 | 4.8 | 27.4 | 0.00 | 0.00 | 0.00 | 42 | 1017.4 |
| 20260906024030 | 30 | 200 | 4.8 | 20.9 | 0.00 | 0.00 | 0.00 | 42 | 1017.2 |
| 20260906023028 | 30 | 225 | 4.8 | 16.1 | 0.00 | 0.00 | 0.00 | 41 | 1017.2 |
| 20260906022026 | 30 | 218 | 4.8 | 12.9 | 0.00 | 0.00 | 0.00 | 42 | 1017.1 |
| 20260906021025 | 31 | 227 | 3.2 | 11.3 | 0.00 | 0.00 | 0.00 | 43 | 1017.3 |
| 20260906020023 | 31 | 208 | 3.2 | 14.5 | 0.00 | 0.00 | 0.00 | 42 | 1017.2 |
| 20260906015021 | 31 | 219 | 4.8 | 14.5 | 0.00 | 0.00 | 0.00 | 41 | 1016.9 |
| 20260906014019 | 31 | 230 | 4.8 | 12.9 | 0.00 | 0.00 | 0.00 | 40 | 1016.7 |
| 20260906013018 | 31 | 193 | 1.6 | 6.4 | 0.00 | 0.00 | 0.00 | 40 | 1016.5 |
| 20260906012016 | 32 | 200 | 3.2 | 12.9 | 0.00 | 0.00 | 0.00 | 39 | 1016.5 |
| 20260906011054 | 32 | 214 | 1.6 | 16.1 | 0.00 | 0.00 | 0.00 | 38 | 1016.5 |
| 20260906010032 | 32 | 240 | 1.6 | 14.5 | 0.00 | 0.00 | 0.00 | 38 | 1016.4 |
| 20260906005030 | 32 | 226 | 1.6 | 11.3 | 0.00 | 0.00 | 0.00 | 38 | 1016.4 |
| 20260906004028 | 32 | 191 | 3.2 | 14.5 | 0.00 | 0.00 | 0.00 | 37 | 1016.3 |
| 20260906003027 | 32 | 177 | 3.2 | 12.9 | 0.00 | 0.00 | 0.00 | 37 | 1016.3 |
| 20260906002045 | 33 | 183 | 4.8 | 19.3 | 0.00 | 0.00 | 0.00 | 37 | 1016.0 |
| 20260906001043 | 33 | 205 | 4.8 | 12.9 | 0.00 | 0.00 | 0.00 | 37 | 1016.0 |
| 20260906000021 | 33 | 170 | 4.8 | 17.7 | 0.00 | 0.00 | 0.00 | 35 | 1015.9 |
| 20260905235020 | 34 | 190 | 1.6 | 14.5 | 0.00 | 0.00 | 0.00 | 35 | 1015.9 |
| 20260905234017 | 34 | 231 | 3.2 | 9.7 | 0.00 | 0.00 | 0.00 | 34 | 1015.7 |
| 20260905233016 | 34 | 214 | 3.2 | 14.5 | 0.00 | 0.00 | 0.00 | 33 | 1015.4 |
| 20260905232034 | 34 | 207 | 4.8 | 17.7 | 0.00 | 0.00 | 0.00 | 34 | 1015.3 |
| 20260905231032 | 35 | 213 | 4.8 | 14.5 | 0.00 | 0.00 | 0.00 | 33 | 1015.5 |
| 20260905230030 | 35 | 205 | 4.8 | 12.9 | 0.00 | 0.00 | 0.00 | 33 | 1015.5 |
| 20260905225029 | 35 | 230 | 8.0 | 22.5 | 0.00 | 0.00 | 0.00 | 32 | 1015.3 |
| 20260905224027 | 36 | 231 | 6.4 | 17.7 | 0.00 | 0.00 | 0.00 | 31 | 1015.4 |
| 20260905223025 | 36 | 225 | 4.8 | 9.7 | 0.00 | 0.00 | 0.00 | 32 | 1015.5 |
| 20260905222023 | 35 | 222 | 8.0 | 22.5 | 0.00 | 0.00 | 0.00 | 33 | 1015.5 |
| 20260905221021 | 36 | 214 | 4.8 | 17.7 | 0.00 | 0.00 | 0.00 | 33 | 1015.5 |
| 20260905220019 | 36 | 209 | 8.0 | 24.1 | 0.00 | 0.00 | 0.00 | 32 | 1015.7 |
| 20260905215018 | 36 | 195 | 4.8 | 16.1 | 0.00 | 0.00 | 0.00 | 32 | 1015.6 |
| 20260905214016 | 37 | 217 | 8.0 | 17.7 | 0.00 | 0.00 | 0.00 | 31 | 1015.8 |
| 20260905213034 | 36 | 151 | 4.8 | 12.9 | 0.00 | 0.00 | 0.00 | 32 | 1015.8 |